createdAt,value
2019-03-31T00:02:00.326Z,52.70
2019-03-31T00:04:28.823Z,55.00
2019-03-31T00:06:57.332Z,52.20
2019-03-31T00:09:25.817Z,54.80
2019-03-31T00:11:54.306Z,55.63
2019-03-31T00:14:22.816Z,47.87
2019-03-31T00:16:52.624Z,48.07
2019-03-31T00:19:21.247Z,51.77
2019-03-31T00:21:49.735Z,46.40
2019-03-31T00:24:18.288Z,49.80
2019-03-31T00:26:46.754Z,47.30
2019-03-31T00:29:15.258Z,46.80
2019-03-31T00:31:43.795Z,48.40
2019-03-31T00:34:12.279Z,50.13
2019-03-31T00:36:40.806Z,50.30
2019-03-31T00:39:09.262Z,48.03
2019-03-31T00:41:37.738Z,45.73
2019-03-31T00:44:06.239Z,47.63
2019-03-31T00:46:34.694Z,37.57
2019-03-31T00:49:03.169Z,46.53
2019-03-31T00:51:31.661Z,45.07
2019-03-31T00:54:00.124Z,45.63
2019-03-31T00:56:28.649Z,45.27
2019-03-31T00:58:57.170Z,41.93
2019-03-31T01:01:36.506Z,41.10
2019-03-31T01:04:00.459Z,45.47
2019-03-31T01:06:29.223Z,41.17
2019-03-31T01:08:58.130Z,40.10
2019-03-31T01:11:27.334Z,42.93
2019-03-31T01:13:56.236Z,41.40
2019-03-31T01:16:24.940Z,42.53
2019-03-31T01:18:53.404Z,45.57
2019-03-31T01:21:21.970Z,45.47
2019-03-31T01:23:50.443Z,44.47
2019-03-31T01:26:20.550Z,44.57
2019-03-31T01:28:49.504Z,47.70
2019-03-31T01:31:17.967Z,48.37
2019-03-31T01:33:46.447Z,48.70
2019-03-31T01:36:15.611Z,51.07
2019-03-31T01:38:44.077Z,51.17
2019-03-31T01:41:13.481Z,51.67
2019-03-31T01:43:41.938Z,51.97
2019-03-31T01:46:12.054Z,49.27
2019-03-31T01:48:40.562Z,47.77
2019-03-31T01:51:09.193Z,47.50
2019-03-31T01:53:37.658Z,46.90
2019-03-31T01:56:06.146Z,50.23
2019-03-31T01:58:34.623Z,48.20
2019-03-31T02:01:07.510Z,47.30
2019-03-31T02:03:36.003Z,46.50
2019-03-31T02:06:04.956Z,49.03
2019-03-31T02:08:33.462Z,47.40
2019-03-31T02:11:02.089Z,43.57
2019-03-31T02:13:30.567Z,44.13
2019-03-31T02:15:59.111Z,43.83
2019-03-31T02:18:27.618Z,47.27
2019-03-31T02:20:56.073Z,39.97
2019-03-31T02:23:24.552Z,48.57
2019-03-31T02:25:53.086Z,47.07
2019-03-31T02:28:21.550Z,52.50
2019-03-31T02:30:50.025Z,49.80
2019-03-31T02:33:18.504Z,44.17
2019-03-31T02:35:46.964Z,40.93
2019-03-31T02:38:15.438Z,42.20
2019-03-31T02:40:43.946Z,42.57
2019-03-31T02:43:12.434Z,40.37
2019-03-31T02:45:40.880Z,41.00
2019-03-31T02:48:09.381Z,43.43
2019-03-31T02:50:46.250Z,42.07
2019-03-31T02:53:15.978Z,38.90
2019-03-31T02:55:45.281Z,29.87
2019-03-31T02:58:15.644Z,31.57
2019-03-31T03:00:44.861Z,33.90
2019-03-31T03:03:15.024Z,34.13
2019-03-31T03:05:43.549Z,29.13
2019-03-31T03:08:13.815Z,19.37
2019-03-31T03:10:44.073Z,27.77
2019-03-31T03:13:14.746Z,23.30
2019-03-31T03:15:57.653Z,24.60
2019-03-31T03:18:26.106Z,26.00
2019-03-31T03:20:55.130Z,24.90
2019-03-31T03:23:23.611Z,24.70
2019-03-31T03:25:56.321Z,20.80
2019-03-31T03:28:22.271Z,22.17
2019-03-31T03:30:50.895Z,21.67
2019-03-31T03:33:19.614Z,20.20
2019-03-31T03:35:48.328Z,22.03
2019-03-31T03:38:16.829Z,22.00
2019-03-31T03:40:45.282Z,17.97
2019-03-31T03:43:13.743Z,20.90
2019-03-31T03:45:42.235Z,17.90
2019-03-31T03:48:10.697Z,20.27
2019-03-31T03:50:39.149Z,20.40
2019-03-31T03:53:07.656Z,20.40
2019-03-31T03:55:36.386Z,19.73
2019-03-31T03:58:04.849Z,18.77
2019-03-31T04:00:33.327Z,20.30
2019-03-31T04:03:01.803Z,18.37
2019-03-31T04:05:30.264Z,20.73
2019-03-31T04:07:58.765Z,20.30
2019-03-31T04:10:46.545Z,19.53
2019-03-31T04:13:15.099Z,19.30
2019-03-31T04:15:43.556Z,20.90
2019-03-31T04:18:12.037Z,21.30
2019-03-31T04:20:40.510Z,19.20
2019-03-31T04:23:08.956Z,20.63
2019-03-31T04:25:37.423Z,20.23
2019-03-31T04:28:05.910Z,20.90
2019-03-31T04:30:34.358Z,21.40
2019-03-31T04:33:02.830Z,18.90
2019-03-31T04:35:31.334Z,21.50
2019-03-31T04:37:59.809Z,20.77
2019-03-31T04:40:28.241Z,21.93
2019-03-31T04:42:56.745Z,20.50
2019-03-31T04:45:25.203Z,21.47
2019-03-31T04:47:53.668Z,20.87
2019-03-31T04:50:22.151Z,17.80
2019-03-31T04:52:50.614Z,18.20
2019-03-31T04:55:19.069Z,20.23
2019-03-31T04:57:47.577Z,17.80
2019-03-31T05:00:16.037Z,19.33
2019-03-31T05:02:44.499Z,17.67
2019-03-31T05:05:12.992Z,16.50
2019-03-31T05:07:41.449Z,16.17
2019-03-31T05:10:10.070Z,16.80
2019-03-31T05:12:40.416Z,15.20
2019-03-31T05:15:08.867Z,14.63
2019-03-31T05:17:37.325Z,16.50
2019-03-31T05:20:06.566Z,14.57
2019-03-31T05:22:35.034Z,16.60
2019-03-31T05:25:04.169Z,17.23
2019-03-31T05:27:32.651Z,15.80
2019-03-31T05:30:01.107Z,15.73
2019-03-31T05:32:29.557Z,16.97
2019-03-31T05:34:58.051Z,16.10
2019-03-31T05:37:26.503Z,17.40
2019-03-31T05:39:54.955Z,16.73
2019-03-31T05:42:23.443Z,15.60
2019-03-31T05:44:51.975Z,15.60
2019-03-31T05:47:20.445Z,14.40
2019-03-31T05:49:48.926Z,15.90
2019-03-31T05:52:17.384Z,14.60
2019-03-31T05:54:45.841Z,13.90
2019-03-31T05:57:15.882Z,16.20
2019-03-31T05:59:44.337Z,17.17
2019-03-31T06:02:12.791Z,16.87
2019-03-31T06:04:41.278Z,15.60
2019-03-31T06:07:10.293Z,15.40
2019-03-31T06:09:38.757Z,16.67
2019-03-31T06:12:07.272Z,14.97
2019-03-31T06:14:36.855Z,17.10
2019-03-31T06:17:05.318Z,14.10
2019-03-31T06:19:33.815Z,17.03
2019-03-31T06:22:02.276Z,14.67
2019-03-31T06:24:30.728Z,13.90
2019-03-31T06:26:59.218Z,14.03
2019-03-31T06:29:27.672Z,15.00
2019-03-31T06:31:56.134Z,11.97
2019-03-31T06:34:24.651Z,11.80
2019-03-31T06:36:53.103Z,12.13
2019-03-31T06:39:21.563Z,9.30
2019-03-31T06:41:50.053Z,11.27
2019-03-31T06:44:18.507Z,7.50
2019-03-31T06:46:46.963Z,6.60
2019-03-31T06:49:15.452Z,7.97
2019-03-31T06:51:43.907Z,7.37
2019-03-31T06:54:12.362Z,6.73
2019-03-31T06:56:40.867Z,6.00
2019-03-31T06:59:09.327Z,7.40
2019-03-31T07:01:37.784Z,4.30
2019-03-31T07:04:06.266Z,5.30
2019-03-31T07:06:34.730Z,4.27
2019-03-31T07:09:04.962Z,3.87
2019-03-31T07:11:33.460Z,3.53
2019-03-31T07:14:01.908Z,3.20
2019-03-31T07:16:30.402Z,2.10
2019-03-31T07:18:58.889Z,3.07
2019-03-31T07:21:27.342Z,1.50
2019-03-31T07:23:55.797Z,2.40
2019-03-31T07:26:24.368Z,1.40
2019-03-31T07:28:52.816Z,2.37
2019-03-31T07:31:21.268Z,2.00
2019-03-31T07:33:49.747Z,2.20
2019-03-31T07:36:18.198Z,2.27
2019-03-31T07:38:46.643Z,2.87
2019-03-31T07:41:15.410Z,1.63
2019-03-31T07:43:43.963Z,2.00
2019-03-31T07:46:12.408Z,2.10
2019-03-31T07:48:40.892Z,1.90
2019-03-31T07:51:09.337Z,2.00
2019-03-31T07:53:37.780Z,1.83
2019-03-31T07:56:07.916Z,2.23
2019-03-31T07:58:36.367Z,1.50
2019-03-31T08:01:04.830Z,2.07
2019-03-31T08:03:33.324Z,2.17
2019-03-31T08:06:01.776Z,1.80
2019-03-31T08:08:30.237Z,2.17
2019-03-31T08:10:58.730Z,1.10
2019-03-31T08:13:27.193Z,2.20
2019-03-31T08:15:55.643Z,1.97
2019-03-31T08:18:24.245Z,2.10
2019-03-31T08:20:52.693Z,2.23
2019-03-31T08:23:21.157Z,1.63
2019-03-31T08:25:49.656Z,1.77
2019-03-31T08:28:18.105Z,1.87
2019-03-31T08:30:46.570Z,1.80
2019-03-31T08:33:15.399Z,2.27
2019-03-31T08:35:47.770Z,1.90
2019-03-31T08:38:14.089Z,2.30
2019-03-31T08:40:42.581Z,1.80
2019-03-31T08:43:11.048Z,2.00
2019-03-31T08:45:39.514Z,1.97
2019-03-31T08:48:07.993Z,2.10
2019-03-31T08:50:36.446Z,2.80
2019-03-31T08:53:05.114Z,2.33
2019-03-31T08:55:33.606Z,3.00
2019-03-31T08:58:02.070Z,1.70
2019-03-31T09:00:34.830Z,1.80
2019-03-31T09:03:03.334Z,2.27
2019-03-31T09:05:31.798Z,2.63
2019-03-31T09:08:00.255Z,1.73
2019-03-31T09:10:28.737Z,2.60
2019-03-31T09:12:57.186Z,2.10
2019-03-31T09:15:25.631Z,2.40
2019-03-31T09:17:54.571Z,2.63
2019-03-31T09:20:24.046Z,2.50
2019-03-31T09:22:52.501Z,2.40
2019-03-31T09:25:21.023Z,2.53
2019-03-31T09:27:49.639Z,2.20
2019-03-31T09:30:18.281Z,1.60
2019-03-31T09:32:46.774Z,2.37
2019-03-31T09:35:15.397Z,2.30
2019-03-31T09:37:43.862Z,1.67
2019-03-31T09:40:12.923Z,2.07
2019-03-31T09:42:41.385Z,2.50
2019-03-31T09:45:11.894Z,2.70
2019-03-31T09:47:40.362Z,1.97
2019-03-31T09:50:11.423Z,2.00
2019-03-31T09:52:40.055Z,1.80
2019-03-31T09:55:09.988Z,2.00
2019-03-31T09:57:38.611Z,1.40
2019-03-31T10:00:12.487Z,1.37
2019-03-31T10:02:41.039Z,1.70
2019-03-31T10:05:10.139Z,2.17
2019-03-31T10:07:38.782Z,1.50
2019-03-31T10:10:18.761Z,2.20
2019-03-31T10:12:47.231Z,1.53
2019-03-31T10:15:15.679Z,1.37
2019-03-31T10:17:44.175Z,1.57
2019-03-31T10:20:12.844Z,2.27
2019-03-31T10:22:41.420Z,2.40
2019-03-31T10:25:13.217Z,1.83
2019-03-31T10:27:40.219Z,1.77
2019-03-31T10:30:08.849Z,1.73
2019-03-31T10:32:37.339Z,2.63
2019-03-31T10:35:07.460Z,1.60
2019-03-31T10:37:35.930Z,2.57
2019-03-31T10:40:07.911Z,2.53
2019-03-31T10:42:36.358Z,2.27
2019-03-31T10:45:07.187Z,1.70
2019-03-31T10:47:35.692Z,1.93
2019-03-31T10:50:06.606Z,2.10
2019-03-31T10:52:35.112Z,2.20
2019-03-31T10:55:05.238Z,2.50
2019-03-31T10:57:33.696Z,2.47
2019-03-31T11:00:02.157Z,1.60
2019-03-31T11:02:30.634Z,2.37
2019-03-31T11:04:59.083Z,2.40
2019-03-31T11:07:27.534Z,1.03
2019-03-31T11:09:56.049Z,2.20
2019-03-31T11:12:24.499Z,2.47
2019-03-31T11:14:52.941Z,2.30
2019-03-31T11:17:21.433Z,1.97
2019-03-31T11:19:49.886Z,1.50
2019-03-31T11:22:32.025Z,1.90
2019-03-31T11:25:01.539Z,1.37
2019-03-31T11:27:30.097Z,2.00
2019-03-31T11:29:58.625Z,2.40
2019-03-31T11:32:27.093Z,1.90
2019-03-31T11:34:55.553Z,3.10
2019-03-31T11:37:24.093Z,2.30
2019-03-31T11:39:52.492Z,2.23
2019-03-31T11:42:20.949Z,1.90
2019-03-31T11:44:49.437Z,2.10
2019-03-31T11:47:17.900Z,1.93
2019-03-31T11:49:46.362Z,3.20
2019-03-31T11:52:14.922Z,2.17
2019-03-31T11:54:45.879Z,1.40
2019-03-31T11:57:13.550Z,2.20
2019-03-31T11:59:42.065Z,3.40
2019-03-31T12:02:10.525Z,2.50
2019-03-31T12:04:38.978Z,3.33
2019-03-31T12:07:07.476Z,2.37
2019-03-31T12:09:36.055Z,2.63
2019-03-31T12:12:04.629Z,2.20
2019-03-31T12:14:33.586Z,2.43
2019-03-31T12:17:02.033Z,1.77
2019-03-31T12:19:30.568Z,2.90
2019-03-31T12:21:59.083Z,3.40
2019-03-31T12:24:27.538Z,3.20
2019-03-31T12:26:57.066Z,2.03
2019-03-31T12:29:25.565Z,2.67
2019-03-31T12:31:54.014Z,2.00
2019-03-31T12:34:22.468Z,2.13
2019-03-31T12:36:50.965Z,2.07
2019-03-31T12:39:19.419Z,2.90
2019-03-31T12:41:47.875Z,1.80
2019-03-31T12:44:16.371Z,2.80
2019-03-31T12:46:44.837Z,2.03
2019-03-31T12:49:13.296Z,2.70
2019-03-31T12:51:41.780Z,2.10
2019-03-31T12:54:10.243Z,2.33
2019-03-31T12:56:38.690Z,1.50
2019-03-31T12:59:07.175Z,1.67
2019-03-31T13:01:35.679Z,2.37
2019-03-31T13:04:04.153Z,2.17
2019-03-31T13:06:32.697Z,2.23
2019-03-31T13:09:01.147Z,2.00
2019-03-31T13:11:29.592Z,2.03
2019-03-31T13:13:58.243Z,1.50
2019-03-31T13:16:26.668Z,2.10
2019-03-31T13:18:57.063Z,1.63
2019-03-31T13:21:25.542Z,1.90
2019-03-31T13:23:54.108Z,1.83
2019-03-31T13:26:22.562Z,1.90
2019-03-31T13:28:51.981Z,1.83
2019-03-31T13:31:20.433Z,2.10
2019-03-31T13:33:48.889Z,1.60
2019-03-31T13:36:17.399Z,1.67
2019-03-31T13:38:45.860Z,1.40
2019-03-31T13:41:14.380Z,2.40
2019-03-31T13:43:42.865Z,2.03
2019-03-31T13:46:11.359Z,2.23
2019-03-31T13:48:39.813Z,1.87
2019-03-31T13:51:08.306Z,1.47
2019-03-31T13:53:39.974Z,1.50
2019-03-31T13:56:08.495Z,2.80
2019-03-31T13:58:38.791Z,2.47
2019-03-31T14:01:07.314Z,2.23
2019-03-31T14:03:35.732Z,1.90
2019-03-31T14:06:04.359Z,2.00
2019-03-31T14:08:32.818Z,2.00
2019-03-31T14:11:01.265Z,1.70
2019-03-31T14:13:29.748Z,1.43
2019-03-31T14:15:58.306Z,1.73
2019-03-31T14:18:26.754Z,1.53
2019-03-31T14:20:55.226Z,1.50
2019-03-31T14:23:23.684Z,1.40
2019-03-31T14:25:52.136Z,1.30
2019-03-31T14:28:20.635Z,1.90
2019-03-31T14:30:49.343Z,1.47
2019-03-31T14:33:17.926Z,1.47
2019-03-31T14:35:46.512Z,1.60
2019-03-31T14:38:14.958Z,1.47
2019-03-31T14:40:43.405Z,1.40
2019-03-31T14:43:11.907Z,1.60
2019-03-31T14:45:40.446Z,1.87
2019-03-31T14:48:08.998Z,1.47
2019-03-31T14:50:38.198Z,1.43
2019-03-31T14:53:06.782Z,1.83
2019-03-31T14:55:35.353Z,1.90
2019-03-31T14:58:03.899Z,1.50
2019-03-31T15:00:32.428Z,2.50
2019-03-31T15:03:00.880Z,1.87
2019-03-31T15:05:29.377Z,1.37
2019-03-31T15:07:58.713Z,1.77
2019-03-31T15:10:27.584Z,0.87
2019-03-31T15:12:56.090Z,1.10
2019-03-31T15:15:24.560Z,1.17
2019-03-31T15:17:53.025Z,1.73
2019-03-31T15:20:21.520Z,1.73
2019-03-31T15:22:51.594Z,1.57
2019-03-31T15:25:20.212Z,1.63
2019-03-31T15:27:48.699Z,1.20
2019-03-31T15:30:17.280Z,1.73
2019-03-31T15:32:46.093Z,1.77
2019-03-31T15:35:14.672Z,1.47
2019-03-31T15:37:43.131Z,2.40
2019-03-31T15:40:11.652Z,0.83
2019-03-31T15:42:40.508Z,1.43
2019-03-31T15:45:08.962Z,1.73
2019-03-31T15:47:37.481Z,1.60
2019-03-31T15:50:07.626Z,1.43
2019-03-31T15:52:36.083Z,1.67
2019-03-31T15:55:06.483Z,1.50
2019-03-31T15:57:34.965Z,1.30
2019-03-31T16:00:04.522Z,1.23
2019-03-31T16:02:33.011Z,1.00
2019-03-31T16:05:01.490Z,0.90
2019-03-31T16:07:29.944Z,1.17
2019-03-31T16:09:58.420Z,1.67
2019-03-31T16:12:26.898Z,1.30
2019-03-31T16:14:55.350Z,1.23
2019-03-31T16:17:23.807Z,0.90
2019-03-31T16:19:52.346Z,1.10
2019-03-31T16:22:20.787Z,1.40
2019-03-31T16:24:59.867Z,1.53
2019-03-31T16:27:28.377Z,2.63
2019-03-31T16:29:56.829Z,1.67
2019-03-31T16:32:25.316Z,2.43
2019-03-31T16:34:53.779Z,2.67
2019-03-31T16:37:22.246Z,3.17
2019-03-31T16:39:50.716Z,1.90
2019-03-31T16:42:19.159Z,2.00
2019-03-31T16:44:57.932Z,1.37
2019-03-31T16:47:17.815Z,1.50
2019-03-31T16:49:46.321Z,1.60
2019-03-31T16:52:14.787Z,1.53
2019-03-31T16:54:43.288Z,1.27
2019-03-31T16:57:11.736Z,1.97
2019-03-31T16:59:40.188Z,5.07
2019-03-31T17:02:08.662Z,1.67
2019-03-31T17:04:37.116Z,1.30
2019-03-31T17:07:05.648Z,2.10
2019-03-31T17:09:34.142Z,1.60
2019-03-31T17:12:02.599Z,1.80
2019-03-31T17:14:31.043Z,1.10
2019-03-31T17:16:59.539Z,1.13
2019-03-31T17:19:28.070Z,2.13
2019-03-31T17:21:59.634Z,1.90
2019-03-31T17:24:26.749Z,1.90
2019-03-31T17:26:55.206Z,1.70
2019-03-31T17:29:23.659Z,2.90
2019-03-31T17:31:52.155Z,2.00
2019-03-31T17:34:20.619Z,2.23
2019-03-31T17:36:49.164Z,2.33
2019-03-31T17:39:17.631Z,1.87
2019-03-31T17:41:46.095Z,1.43
2019-03-31T17:44:14.562Z,1.53
2019-03-31T17:46:43.048Z,1.70
2019-03-31T17:49:11.563Z,1.60
2019-03-31T17:51:40.017Z,2.77
2019-03-31T17:54:08.533Z,1.60
2019-03-31T17:56:36.980Z,2.93
2019-03-31T17:59:08.739Z,1.50
2019-03-31T18:01:35.659Z,3.67
2019-03-31T18:04:04.102Z,1.80
2019-03-31T18:06:32.567Z,2.17
2019-03-31T18:09:01.061Z,1.50
2019-03-31T18:11:29.515Z,2.10
2019-03-31T18:13:57.964Z,1.50
2019-03-31T18:16:26.461Z,1.63
2019-03-31T18:18:54.912Z,2.13
2019-03-31T18:21:23.354Z,2.00
2019-03-31T18:23:51.842Z,2.87
2019-03-31T18:26:20.297Z,3.07
2019-03-31T18:28:48.749Z,2.93
2019-03-31T18:31:17.221Z,2.50
2019-03-31T18:33:51.803Z,3.00
2019-03-31T18:36:20.268Z,2.67
2019-03-31T18:38:48.738Z,1.87
2019-03-31T18:41:17.203Z,2.60
2019-03-31T18:43:57.295Z,2.23
2019-03-31T18:46:27.442Z,3.10
2019-03-31T18:48:55.904Z,2.47
2019-03-31T18:51:24.403Z,2.77
2019-03-31T18:53:54.494Z,3.47
2019-03-31T18:56:39.647Z,3.13
2019-03-31T18:59:25.833Z,4.33
2019-03-31T19:04:55.233Z,3.00
2019-03-31T19:07:27.885Z,3.00
2019-03-31T19:09:57.994Z,3.13
2019-03-31T19:12:34.104Z,2.37
2019-03-31T19:15:13.065Z,2.43
2019-03-31T19:17:43.232Z,2.83
2019-03-31T19:20:13.302Z,2.30
2019-03-31T19:22:43.393Z,2.57
2019-03-31T19:25:13.581Z,2.37
2019-03-31T19:27:43.736Z,1.77
2019-03-31T19:30:50.081Z,1.97
2019-03-31T19:33:20.177Z,2.57
2019-03-31T19:35:59.476Z,2.40
2019-03-31T19:38:32.483Z,2.57
2019-03-31T19:41:08.615Z,1.77
2019-03-31T19:43:41.486Z,1.90
2019-03-31T19:46:17.876Z,1.80
2019-03-31T19:49:04.604Z,2.10
2019-03-31T19:51:34.753Z,1.93
2019-03-31T19:54:10.695Z,2.70
2019-03-31T19:56:57.013Z,2.40
2019-03-31T19:59:43.417Z,2.20
2019-03-31T20:02:13.551Z,2.20
2019-03-31T20:04:49.139Z,2.27
2019-03-31T20:07:35.632Z,2.10
2019-03-31T20:10:06.360Z,2.43
2019-03-31T20:12:42.455Z,2.83
2019-03-31T20:15:27.217Z,3.80
2019-03-31T20:18:03.297Z,2.90
2019-03-31T20:20:45.169Z,2.70
2019-03-31T20:23:24.103Z,2.23
2019-03-31T20:26:10.311Z,2.37
2019-03-31T20:28:40.456Z,2.40
2019-03-31T20:31:19.788Z,1.87
2019-03-31T20:33:55.598Z,1.60
2019-03-31T20:36:32.184Z,2.20
2019-03-31T20:39:05.465Z,2.10
2019-03-31T20:41:35.563Z,1.90
2019-03-31T20:44:04.002Z,1.93
2019-03-31T20:46:32.483Z,2.30
2019-03-31T20:49:00.938Z,2.47
2019-03-31T20:51:29.392Z,3.00
2019-03-31T20:53:57.886Z,2.20
2019-03-31T20:56:26.332Z,1.90
2019-03-31T20:58:54.767Z,2.13
2019-03-31T21:01:23.264Z,2.33
2019-03-31T21:03:51.725Z,3.23
2019-03-31T21:06:20.167Z,1.77
2019-03-31T21:08:48.677Z,2.17
2019-03-31T21:11:17.132Z,2.20
2019-03-31T21:13:45.594Z,1.60
2019-03-31T21:16:14.092Z,1.77
2019-03-31T21:18:42.539Z,1.87
2019-03-31T21:21:10.986Z,2.17
2019-03-31T21:23:39.472Z,2.43
2019-03-31T21:26:07.925Z,1.87
2019-03-31T21:28:36.372Z,1.87
2019-03-31T21:31:04.930Z,2.53
2019-03-31T21:33:33.379Z,1.90
2019-03-31T21:36:01.853Z,2.60
2019-03-31T21:38:30.625Z,2.20
2019-03-31T21:40:59.074Z,2.30
2019-03-31T21:43:27.525Z,3.40
2019-03-31T21:45:56.103Z,2.67
2019-03-31T21:48:24.560Z,2.50
2019-03-31T21:50:52.996Z,2.60
2019-03-31T21:53:21.482Z,2.50
2019-03-31T21:55:49.947Z,1.87
2019-03-31T21:58:18.464Z,2.50
2019-03-31T22:00:51.452Z,2.40
2019-03-31T22:03:20.085Z,2.03
2019-03-31T22:05:48.598Z,1.97
2019-03-31T22:08:17.103Z,2.40
2019-03-31T22:10:45.547Z,2.83
2019-03-31T22:13:13.989Z,2.00
2019-03-31T22:15:42.490Z,2.80
2019-03-31T22:18:11.014Z,2.20
2019-03-31T22:20:39.458Z,3.20
2019-03-31T22:23:07.990Z,2.10
2019-03-31T22:25:36.391Z,1.97
2019-03-31T22:28:05.020Z,2.20
2019-03-31T22:30:35.250Z,1.87
2019-03-31T22:33:03.954Z,2.33
2019-03-31T22:35:32.406Z,2.00
2019-03-31T22:38:02.556Z,1.50
2019-03-31T22:40:32.163Z,1.73
2019-03-31T22:43:00.613Z,2.17
2019-03-31T22:45:29.378Z,1.90
2019-03-31T22:47:57.816Z,2.07
2019-03-31T22:50:26.265Z,2.50
2019-03-31T22:52:54.742Z,1.50
2019-03-31T22:55:23.195Z,2.00
2019-03-31T22:57:51.638Z,1.80
2019-03-31T23:00:21.759Z,2.23
2019-03-31T23:02:50.205Z,2.13
2019-03-31T23:05:18.817Z,1.83
2019-03-31T23:07:47.308Z,1.80
2019-03-31T23:10:15.830Z,2.37
2019-03-31T23:12:44.285Z,2.47
2019-03-31T23:15:12.911Z,2.63
2019-03-31T23:17:41.348Z,2.90
2019-03-31T23:20:09.869Z,2.40
2019-03-31T23:22:38.362Z,2.50
2019-03-31T23:25:06.982Z,2.80
2019-03-31T23:27:35.432Z,2.80
2019-03-31T23:30:07.648Z,1.70
2019-03-31T23:32:36.095Z,2.87
2019-03-31T23:35:06.087Z,3.43
2019-03-31T23:37:34.606Z,3.73
2019-03-31T23:40:03.291Z,3.47
2019-03-31T23:42:32.842Z,2.90
2019-03-31T23:45:01.285Z,4.40
2019-03-31T23:47:29.742Z,7.30
2019-03-31T23:49:58.222Z,7.07
2019-03-31T23:52:26.665Z,5.53
2019-03-31T23:54:55.123Z,5.27
2019-03-31T23:57:25.265Z,4.30
2019-03-31T23:59:53.710Z,2.97
